createdAt,value
2022-07-26T00:02:01.156Z,21.30
2022-07-26T00:07:05.109Z,21.30
2022-07-26T00:12:11.135Z,21.30
2022-07-26T00:17:14.794Z,21.30
2022-07-26T00:22:39.477Z,21.40
2022-07-26T00:27:44.497Z,21.40
2022-07-26T00:32:49.129Z,21.40
2022-07-26T00:37:53.088Z,21.40
2022-07-26T00:42:58.094Z,21.40
2022-07-26T00:48:01.709Z,21.40
2022-07-26T00:53:05.534Z,21.30
2022-07-26T00:58:10.568Z,21.20
2022-07-26T01:03:14.362Z,21.20
2022-07-26T01:08:18.215Z,21.10
2022-07-26T01:13:23.882Z,21.00
2022-07-26T01:18:27.547Z,21.00
2022-07-26T01:23:32.835Z,21.00
2022-07-26T01:28:40.593Z,21.00
2022-07-26T01:33:44.432Z,20.90
2022-07-26T01:38:49.592Z,20.90
2022-07-26T01:43:53.307Z,20.90
2022-07-26T01:48:57.175Z,21.00
2022-07-26T01:54:02.515Z,21.00
2022-07-26T01:59:06.852Z,20.90
2022-07-26T02:04:30.988Z,20.90
2022-07-26T02:09:39.583Z,20.80
2022-07-26T02:14:43.953Z,20.80
2022-07-26T02:19:47.661Z,20.70
2022-07-26T02:24:52.742Z,20.70
2022-07-26T02:29:56.393Z,20.70
2022-07-26T02:35:00.110Z,20.60
2022-07-26T02:40:05.970Z,20.60
2022-07-26T02:45:10.926Z,20.60
2022-07-26T02:50:16.896Z,20.60
2022-07-26T02:55:24.484Z,20.60
2022-07-26T03:00:28.445Z,20.50
2022-07-26T03:05:32.126Z,20.50
2022-07-26T03:10:37.175Z,20.50
2022-07-26T03:15:40.951Z,20.50
2022-07-26T03:20:44.637Z,20.50
2022-07-26T03:25:49.588Z,20.50
2022-07-26T03:30:53.158Z,20.50
2022-07-26T03:35:56.835Z,20.40
2022-07-26T03:41:02.008Z,20.50
2022-07-26T03:46:05.897Z,20.50
2022-07-26T03:51:09.611Z,20.40
2022-07-26T03:56:34.696Z,20.40
2022-07-26T04:01:41.872Z,20.40
2022-07-26T04:06:46.655Z,20.40
2022-07-26T04:11:51.714Z,20.30
2022-07-26T04:16:55.354Z,20.30
2022-07-26T04:21:59.838Z,20.30
2022-07-26T04:27:05.008Z,20.30
2022-07-26T04:32:08.728Z,20.30
2022-07-26T04:37:12.424Z,20.20
2022-07-26T04:42:17.440Z,20.30
2022-07-26T04:47:21.155Z,20.30
2022-07-26T04:52:25.219Z,20.30
2022-07-26T04:57:30.231Z,20.30
2022-07-26T05:02:34.095Z,20.20
2022-07-26T05:07:44.655Z,20.20
2022-07-26T05:12:50.338Z,20.20
2022-07-26T05:17:57.011Z,20.20
2022-07-26T05:23:00.717Z,20.20
2022-07-26T05:28:06.198Z,20.20
2022-07-26T05:33:09.848Z,20.20
2022-07-26T05:38:15.799Z,20.20
2022-07-26T05:43:20.837Z,20.30
2022-07-26T05:48:24.758Z,20.30
2022-07-26T05:53:28.730Z,20.40
2022-07-26T05:58:33.826Z,20.40
2022-07-26T06:03:37.540Z,20.50
2022-07-26T06:08:41.219Z,20.50
2022-07-26T06:13:46.257Z,20.60
2022-07-26T06:18:49.967Z,20.60
2022-07-26T06:23:53.646Z,20.60
2022-07-26T06:28:58.713Z,20.70
2022-07-26T06:34:02.370Z,20.80
2022-07-26T06:39:06.405Z,20.90
2022-07-26T06:44:11.827Z,20.90
2022-07-26T06:49:19.398Z,21.00
2022-07-26T06:54:25.655Z,21.00
2022-07-26T06:59:30.857Z,21.10
2022-07-26T07:04:35.126Z,21.20
2022-07-26T07:09:39.075Z,21.30
2022-07-26T07:14:44.166Z,21.40
2022-07-26T07:19:47.891Z,21.40
2022-07-26T07:24:51.578Z,21.50
2022-07-26T07:29:56.625Z,21.60
2022-07-26T07:35:01.324Z,21.70
2022-07-26T07:40:07.554Z,21.80
2022-07-26T07:45:12.835Z,22.10
2022-07-26T07:50:16.497Z,22.20
2022-07-26T07:55:41.468Z,22.30
2022-07-26T08:00:48.086Z,22.40
2022-07-26T08:05:52.077Z,22.50
2022-07-26T08:10:56.083Z,22.60
2022-07-26T08:16:01.954Z,22.80
2022-07-26T08:21:06.005Z,23.00
2022-07-26T08:26:09.750Z,23.20
2022-07-26T08:31:14.869Z,23.30
2022-07-26T08:36:19.126Z,23.50
2022-07-26T08:41:23.197Z,23.70
2022-07-26T08:46:28.415Z,23.70
2022-07-26T08:51:32.800Z,23.80
2022-07-26T08:56:37.552Z,24.20
2022-07-26T09:01:53.697Z,24.60
2022-07-26T09:07:02.953Z,25.00
2022-07-26T09:12:17.875Z,25.10
2022-07-26T09:17:24.753Z,25.00
2022-07-26T09:22:28.657Z,24.90
2022-07-26T09:27:37.159Z,24.80
2022-07-26T09:32:42.228Z,24.80
2022-07-26T09:37:46.893Z,25.20
2022-07-26T09:42:58.423Z,25.40
2022-07-26T09:48:03.930Z,25.30
2022-07-26T09:53:09.369Z,25.40
2022-07-26T09:58:14.294Z,25.70
2022-07-26T10:03:19.803Z,25.90
2022-07-26T10:08:23.513Z,26.10
2022-07-26T10:13:30.377Z,26.40
2022-07-26T10:18:46.076Z,26.50
2022-07-26T10:23:51.315Z,26.60
2022-07-26T10:28:55.124Z,26.90
2022-07-26T10:34:01.798Z,27.00
2022-07-26T10:39:14.235Z,27.30
2022-07-26T10:44:20.941Z,27.40
2022-07-26T10:49:32.633Z,27.60
2022-07-26T10:55:16.146Z,27.50
2022-07-26T11:00:25.662Z,27.20
2022-07-26T11:05:34.980Z,26.90
2022-07-26T11:10:40.820Z,26.40
2022-07-26T11:15:47.356Z,26.20
2022-07-26T11:20:54.655Z,26.20
2022-07-26T11:26:16.103Z,26.30
2022-07-26T11:31:21.073Z,26.60
2022-07-26T11:36:38.413Z,26.80
2022-07-26T11:41:43.297Z,27.50
2022-07-26T11:46:48.392Z,28.10
2022-07-26T17:25:26.736Z,25.70
2022-07-26T17:30:30.738Z,25.30
2022-07-26T17:35:34.500Z,25.70
2022-07-26T17:40:39.753Z,24.70
2022-07-26T17:45:45.085Z,25.40
2022-07-26T17:50:49.052Z,25.20
2022-07-26T18:24:15.724Z,24.10
2022-07-26T18:35:47.279Z,23.90
2022-07-26T19:26:23.774Z,22.60
2022-07-26T19:29:46.454Z,22.50
2022-07-26T19:37:42.858Z,22.80
2022-07-26T19:43:10.663Z,22.30
2022-07-26T19:48:29.597Z,22.20
2022-07-26T19:54:15.119Z,22.10
2022-07-26T19:59:28.038Z,21.40
2022-07-26T20:04:31.831Z,21.90
2022-07-26T20:09:36.960Z,21.80
2022-07-26T20:21:36.543Z,22.40
2022-07-26T20:26:51.599Z,21.50
2022-07-26T21:27:02.282Z,20.20
2022-07-26T21:39:04.143Z,19.50
2022-07-26T22:35:56.686Z,19.20
2022-07-26T22:41:00.391Z,19.10
2022-07-26T22:46:04.255Z,19.00
2022-07-26T22:51:09.380Z,18.90
2022-07-26T22:56:13.073Z,18.90
2022-07-26T23:01:23.441Z,18.80
2022-07-26T23:06:31.810Z,18.80
2022-07-26T23:11:36.236Z,18.70
2022-07-26T23:22:28.156Z,18.60
2022-07-26T23:27:32.059Z,18.50
2022-07-26T23:32:35.828Z,18.30
2022-07-26T23:50:36.920Z,18.10
